sensor_id;sensor_type;location;lat;lon;timestamp;pressure;altitude;pressure_sealevel;temperature;humidity
79544;BME280;68994;47.176;7.534;2023-06-14T00:00:33;95419.59;;;14.21;46.37
79544;BME280;68994;47.176;7.534;2023-06-14T00:03:00;95413.72;;;14.19;48.07
79544;BME280;68994;47.176;7.534;2023-06-14T00:05:29;95414.41;;;14.10;49.32
79544;BME280;68994;47.176;7.534;2023-06-14T00:07:57;95413.19;;;14.03;48.00
79544;BME280;68994;47.176;7.534;2023-06-14T00:10:26;95415.97;;;13.98;49.74
79544;BME280;68994;47.176;7.534;2023-06-14T00:12:56;95419.81;;;13.91;50.51
79544;BME280;68994;47.176;7.534;2023-06-14T00:15:23;95419.41;;;13.84;49.70
79544;BME280;68994;47.176;7.534;2023-06-14T00:17:49;95423.66;;;13.85;51.08
79544;BME280;68994;47.176;7.534;2023-06-14T00:20:16;95417.78;;;13.83;49.85
79544;BME280;68994;47.176;7.534;2023-06-14T00:22:42;95423.44;;;13.82;51.29
79544;BME280;68994;47.176;7.534;2023-06-14T00:25:10;95423.44;;;13.82;49.56
79544;BME280;68994;47.176;7.534;2023-06-14T00:27:38;95419.16;;;13.81;48.47
79544;BME280;68994;47.176;7.534;2023-06-14T00:30:06;95420.25;;;13.80;49.11
79544;BME280;68994;47.176;7.534;2023-06-14T00:32:32;95417.28;;;13.81;49.03
79544;BME280;68994;47.176;7.534;2023-06-14T00:34:59;95411.72;;;13.78;48.36
79544;BME280;68994;47.176;7.534;2023-06-14T00:37:26;95410.41;;;13.75;49.80
79544;BME280;68994;47.176;7.534;2023-06-14T00:39:52;95404.34;;;13.69;48.09
79544;BME280;68994;47.176;7.534;2023-06-14T00:42:25;95408.00;;;13.73;47.25
79544;BME280;68994;47.176;7.534;2023-06-14T00:44:53;95413.09;;;13.75;47.24
79544;BME280;68994;47.176;7.534;2023-06-14T00:47:20;95411.47;;;13.74;47.34
79544;BME280;68994;47.176;7.534;2023-06-14T00:49:48;95414.69;;;13.76;46.82
79544;BME280;68994;47.176;7.534;2023-06-14T00:52:16;95416.78;;;13.79;46.45
79544;BME280;68994;47.176;7.534;2023-06-14T00:54:43;95415.09;;;13.83;45.96
79544;BME280;68994;47.176;7.534;2023-06-14T00:57:10;95414.03;;;13.84;46.27
79544;BME280;68994;47.176;7.534;2023-06-14T00:59:44;95414.03;;;13.84;45.33
79544;BME280;68994;47.176;7.534;2023-06-14T01:02:13;95418.28;;;13.85;45.66
79544;BME280;68994;47.176;7.534;2023-06-14T01:04:43;95413.22;;;13.84;44.01
79544;BME280;68994;47.176;7.534;2023-06-14T01:07:21;95417.22;;;13.86;46.46
79544;BME280;68994;47.176;7.534;2023-06-14T01:09:58;95412.63;;;13.87;45.53
79544;BME280;68994;47.176;7.534;2023-06-14T01:12:41;95411.38;;;13.98;43.18
79544;BME280;68994;47.176;7.534;2023-06-14T01:15:12;95408.81;;;14.07;43.79
79544;BME280;68994;47.176;7.534;2023-06-14T01:17:41;95413.91;;;14.08;42.85
79544;BME280;68994;47.176;7.534;2023-06-14T01:20:12;95407.56;;;14.18;43.63
79544;BME280;68994;47.176;7.534;2023-06-14T01:22:50;95405.88;;;14.22;41.95
79544;BME280;68994;47.176;7.534;2023-06-14T01:25:17;95412.25;;;14.26;42.42
79544;BME280;68994;47.176;7.534;2023-06-14T01:27:47;95409.09;;;14.24;42.49
79544;BME280;68994;47.176;7.534;2023-06-14T01:30:15;95405.38;;;14.20;43.33
79544;BME280;68994;47.176;7.534;2023-06-14T01:32:42;95410.84;;;14.15;42.38
79544;BME280;68994;47.176;7.534;2023-06-14T01:35:09;95404.38;;;14.16;42.60
79544;BME280;68994;47.176;7.534;2023-06-14T01:37:36;95405.47;;;14.15;42.79
79544;BME280;68994;47.176;7.534;2023-06-14T01:40:06;95404.88;;;14.18;41.02
79544;BME280;68994;47.176;7.534;2023-06-14T01:42:36;95408.06;;;14.20;41.69
79544;BME280;68994;47.176;7.534;2023-06-14T01:45:04;95400.31;;;14.19;43.46
79544;BME280;68994;47.176;7.534;2023-06-14T01:47:32;95403.78;;;14.19;42.86
79544;BME280;68994;47.176;7.534;2023-06-14T01:50:00;95411.91;;;14.14;44.35
79544;BME280;68994;47.176;7.534;2023-06-14T01:52:26;95409.91;;;14.06;44.35
79544;BME280;68994;47.176;7.534;2023-06-14T01:54:53;95401.66;;;14.02;45.72
79544;BME280;68994;47.176;7.534;2023-06-14T01:57:21;95404.03;;;14.04;42.71
79544;BME280;68994;47.176;7.534;2023-06-14T01:59:48;95400.88;;;14.02;43.65
79544;BME280;68994;47.176;7.534;2023-06-14T02:02:16;95405.72;;;14.00;43.80
79544;BME280;68994;47.176;7.534;2023-06-14T02:04:42;95400.94;;;13.97;43.44
79544;BME280;68994;47.176;7.534;2023-06-14T02:07:09;95405.00;;;13.94;44.36
79544;BME280;68994;47.176;7.534;2023-06-14T02:09:36;95407.75;;;13.89;45.02
79544;BME280;68994;47.176;7.534;2023-06-14T02:12:02;95400.81;;;13.88;44.61
79544;BME280;68994;47.176;7.534;2023-06-14T02:14:31;95407.47;;;13.90;43.43
79544;BME280;68994;47.176;7.534;2023-06-14T02:16:57;95401.91;;;13.87;44.72
79544;BME280;68994;47.176;7.534;2023-06-14T02:19:26;95407.56;;;13.85;45.65
79544;BME280;68994;47.176;7.534;2023-06-14T02:21:53;95412.50;;;13.78;44.55
79544;BME280;68994;47.176;7.534;2023-06-14T02:24:19;95406.72;;;13.71;46.95
79544;BME280;68994;47.176;7.534;2023-06-14T02:26:46;95414.84;;;13.66;47.50
79544;BME280;68994;47.176;7.534;2023-06-14T02:29:13;95409.84;;;13.59;45.64
79544;BME280;68994;47.176;7.534;2023-06-14T02:31:42;95413.19;;;13.51;46.81
79544;BME280;68994;47.176;7.534;2023-06-14T02:34:09;95414.69;;;13.38;46.83
79544;BME280;68994;47.176;7.534;2023-06-14T02:36:36;95415.28;;;13.35;46.59
79544;BME280;68994;47.176;7.534;2023-06-14T02:39:06;95412.41;;;13.26;47.60
79544;BME280;68994;47.176;7.534;2023-06-14T02:41:34;95413.84;;;13.18;47.97
79544;BME280;68994;47.176;7.534;2023-06-14T02:44:01;95411.66;;;13.02;48.04
79544;BME280;68994;47.176;7.534;2023-06-14T02:46:28;95425.31;;;13.00;48.87
79544;BME280;68994;47.176;7.534;2023-06-14T02:48:56;95422.84;;;12.85;49.64
79544;BME280;68994;47.176;7.534;2023-06-14T02:51:23;95409.63;;;12.69;51.60
79544;BME280;68994;47.176;7.534;2023-06-14T02:53:49;95412.44;;;12.59;50.82
79544;BME280;68994;47.176;7.534;2023-06-14T02:56:16;95418.97;;;12.48;50.44
79544;BME280;68994;47.176;7.534;2023-06-14T02:58:44;95412.59;;;12.43;52.59
79544;BME280;68994;47.176;7.534;2023-06-14T03:01:11;95419.84;;;12.38;50.97
79544;BME280;68994;47.176;7.534;2023-06-14T03:03:39;95419.63;;;12.34;51.75
79544;BME280;68994;47.176;7.534;2023-06-14T03:06:07;95418.06;;;12.28;52.18
79544;BME280;68994;47.176;7.534;2023-06-14T03:08:35;95426.97;;;12.23;50.83
79544;BME280;68994;47.176;7.534;2023-06-14T03:11:04;95433.66;;;12.21;52.94
79544;BME280;68994;47.176;7.534;2023-06-14T03:13:31;95427.25;;;12.22;53.44
79544;BME280;68994;47.176;7.534;2023-06-14T03:15:58;95433.94;;;12.19;53.68
79544;BME280;68994;47.176;7.534;2023-06-14T03:18:28;95430.53;;;12.14;54.27
79544;BME280;68994;47.176;7.534;2023-06-14T03:20:55;95427.66;;;12.05;51.46
79544;BME280;68994;47.176;7.534;2023-06-14T03:23:25;95439.19;;;12.00;52.44
79544;BME280;68994;47.176;7.534;2023-06-14T03:25:52;95430.97;;;11.92;52.50
79544;BME280;68994;47.176;7.534;2023-06-14T03:28:19;95435.53;;;11.86;52.94
79544;BME280;68994;47.176;7.534;2023-06-14T03:30:45;95439.84;;;11.82;53.96
79544;BME280;68994;47.176;7.534;2023-06-14T03:33:12;95437.22;;;11.77;54.24
79544;BME280;68994;47.176;7.534;2023-06-14T03:35:38;95445.53;;;11.70;53.64
79544;BME280;68994;47.176;7.534;2023-06-14T03:38:05;95446.34;;;11.70;53.45
79544;BME280;68994;47.176;7.534;2023-06-14T03:40:33;95452.22;;;11.67;53.61
79544;BME280;68994;47.176;7.534;2023-06-14T03:43:00;95448.53;;;11.63;54.09
79544;BME280;68994;47.176;7.534;2023-06-14T03:45:26;95447.47;;;11.59;54.15
79544;BME280;68994;47.176;7.534;2023-06-14T03:47:53;95449.63;;;11.57;54.80
79544;BME280;68994;47.176;7.534;2023-06-14T03:50:20;95454.72;;;11.54;56.23
79544;BME280;68994;47.176;7.534;2023-06-14T03:52:47;95457.44;;;11.48;55.79
79544;BME280;68994;47.176;7.534;2023-06-14T03:55:15;95460.38;;;11.47;55.65
79544;BME280;68994;47.176;7.534;2023-06-14T03:57:43;95456.63;;;11.48;54.15
79544;BME280;68994;47.176;7.534;2023-06-14T04:00:11;95466.47;;;11.52;54.24
79544;BME280;68994;47.176;7.534;2023-06-14T04:02:38;95457.63;;;11.57;55.17
79544;BME280;68994;47.176;7.534;2023-06-14T04:05:05;95467.25;;;11.58;55.42
79544;BME280;68994;47.176;7.534;2023-06-14T04:07:34;95456.56;;;11.58;57.70
79544;BME280;68994;47.176;7.534;2023-06-14T04:10:07;95466.72;;;11.56;57.18
79544;BME280;68994;47.176;7.534;2023-06-14T04:12:34;95471.03;;;11.52;56.51
79544;BME280;68994;47.176;7.534;2023-06-14T04:15:02;95475.84;;;11.50;57.10
79544;BME280;68994;47.176;7.534;2023-06-14T04:17:31;95479.34;;;11.45;56.32
79544;BME280;68994;47.176;7.534;2023-06-14T04:19:58;95485.19;;;11.52;56.31
79544;BME280;68994;47.176;7.534;2023-06-14T04:22:25;95485.97;;;11.58;57.23
79544;BME280;68994;47.176;7.534;2023-06-14T04:24:53;95484.31;;;11.62;57.01
79544;BME280;68994;47.176;7.534;2023-06-14T04:27:20;95484.38;;;11.57;55.82
79544;BME280;68994;47.176;7.534;2023-06-14T04:29:51;95497.19;;;11.60;56.64
79544;BME280;68994;47.176;7.534;2023-06-14T04:32:23;95489.16;;;11.60;56.77
79544;BME280;68994;47.176;7.534;2023-06-14T04:34:52;95490.22;;;11.59;57.27
79544;BME280;68994;47.176;7.534;2023-06-14T04:37:19;95494.78;;;11.59;57.69
79544;BME280;68994;47.176;7.534;2023-06-14T04:39:46;95495.31;;;11.56;58.41
79544;BME280;68994;47.176;7.534;2023-06-14T04:42:13;95496.09;;;11.56;60.72
79544;BME280;68994;47.176;7.534;2023-06-14T04:44:42;95507.88;;;11.60;61.75
79544;BME280;68994;47.176;7.534;2023-06-14T04:47:09;95505.44;;;11.64;59.60
79544;BME280;68994;47.176;7.534;2023-06-14T04:49:38;95507.56;;;11.67;60.92
79544;BME280;68994;47.176;7.534;2023-06-14T04:52:06;95507.00;;;11.70;60.19
79544;BME280;68994;47.176;7.534;2023-06-14T04:54:35;95506.72;;;11.77;60.21
79544;BME280;68994;47.176;7.534;2023-06-14T04:57:03;95513.34;;;11.79;60.22
79544;BME280;68994;47.176;7.534;2023-06-14T04:59:30;95509.81;;;11.89;60.73
79544;BME280;68994;47.176;7.534;2023-06-14T05:01:58;95509.53;;;11.96;59.77
79544;BME280;68994;47.176;7.534;2023-06-14T05:04:26;95511.13;;;12.02;56.62
79544;BME280;68994;47.176;7.534;2023-06-14T05:06:54;95518.75;;;12.19;57.40
79544;BME280;68994;47.176;7.534;2023-06-14T05:09:22;95509.84;;;12.29;55.26
79544;BME280;68994;47.176;7.534;2023-06-14T05:11:48;95511.66;;;12.38;55.37
79544;BME280;68994;47.176;7.534;2023-06-14T05:14:16;95504.59;;;12.48;54.98
79544;BME280;68994;47.176;7.534;2023-06-14T05:16:42;95507.69;;;12.60;55.58
79544;BME280;68994;47.176;7.534;2023-06-14T05:19:09;95507.63;;;12.70;54.06
79544;BME280;68994;47.176;7.534;2023-06-14T05:21:36;95497.91;;;12.74;55.13
79544;BME280;68994;47.176;7.534;2023-06-14T05:24:05;95508.00;;;12.83;54.90
79544;BME280;68994;47.176;7.534;2023-06-14T05:26:31;95511.72;;;12.87;54.15
79544;BME280;68994;47.176;7.534;2023-06-14T05:28:59;95514.03;;;12.93;54.19
79544;BME280;68994;47.176;7.534;2023-06-14T05:31:27;95514.75;;;13.04;52.88
79544;BME280;68994;47.176;7.534;2023-06-14T05:33:53;95514.19;;;13.07;54.70
79544;BME280;68994;47.176;7.534;2023-06-14T05:36:20;95520.06;;;13.09;54.49
79544;BME280;68994;47.176;7.534;2023-06-14T05:38:47;95518.94;;;13.10;54.42
79544;BME280;68994;47.176;7.534;2023-06-14T05:41:15;95522.66;;;13.14;53.93
79544;BME280;68994;47.176;7.534;2023-06-14T05:43:42;95522.34;;;13.21;54.16
79544;BME280;68994;47.176;7.534;2023-06-14T05:46:08;95533.00;;;13.26;54.01
79544;BME280;68994;47.176;7.534;2023-06-14T05:48:35;95529.47;;;13.31;52.10
79544;BME280;68994;47.176;7.534;2023-06-14T05:51:02;95526.97;;;13.40;52.72
79544;BME280;68994;47.176;7.534;2023-06-14T05:53:29;95532.47;;;13.48;53.11
79544;BME280;68994;47.176;7.534;2023-06-14T05:55:55;95533.19;;;13.54;52.59
79544;BME280;68994;47.176;7.534;2023-06-14T05:58:23;95541.72;;;13.61;52.33
79544;BME280;68994;47.176;7.534;2023-06-14T06:00:50;95538.19;;;13.66;54.71
79544;BME280;68994;47.176;7.534;2023-06-14T06:03:18;95548.22;;;13.74;51.59
79544;BME280;68994;47.176;7.534;2023-06-14T06:05:46;95545.19;;;13.81;52.67
79544;BME280;68994;47.176;7.534;2023-06-14T06:08:13;95548.63;;;13.86;51.93
79544;BME280;68994;47.176;7.534;2023-06-14T06:10:39;95552.81;;;13.92;51.62
79544;BME280;68994;47.176;7.534;2023-06-14T06:13:06;95544.94;;;14.01;49.13
79544;BME280;68994;47.176;7.534;2023-06-14T06:15:34;95544.19;;;14.15;49.58
79544;BME280;68994;47.176;7.534;2023-06-14T06:18:01;95542.94;;;14.26;49.21
79544;BME280;68994;47.176;7.534;2023-06-14T06:20:27;95549.03;;;14.32;51.17
79544;BME280;68994;47.176;7.534;2023-06-14T06:22:56;95557.22;;;14.40;50.49
79544;BME280;68994;47.176;7.534;2023-06-14T06:25:22;95554.09;;;14.52;49.07
79544;BME280;68994;47.176;7.534;2023-06-14T06:27:51;95558.22;;;14.63;49.85
79544;BME280;68994;47.176;7.534;2023-06-14T06:30:18;95548.84;;;14.80;48.56
79544;BME280;68994;47.176;7.534;2023-06-14T06:32:46;95560.38;;;14.94;47.50
79544;BME280;68994;47.176;7.534;2023-06-14T06:35:13;95563.41;;;15.07;46.53
79544;BME280;68994;47.176;7.534;2023-06-14T06:37:40;95560.63;;;15.12;46.95
79544;BME280;68994;47.176;7.534;2023-06-14T06:40:08;95566.41;;;15.19;47.31
79544;BME280;68994;47.176;7.534;2023-06-14T06:42:35;95568.19;;;15.24;48.19
79544;BME280;68994;47.176;7.534;2023-06-14T06:45:02;95566.09;;;15.34;47.29
79544;BME280;68994;47.176;7.534;2023-06-14T06:47:29;95569.50;;;15.40;49.64
79544;BME280;68994;47.176;7.534;2023-06-14T06:49:57;95568.38;;;15.55;45.31
79544;BME280;68994;47.176;7.534;2023-06-14T06:52:24;95569.78;;;15.80;47.36
79544;BME280;68994;47.176;7.534;2023-06-14T06:54:51;95571.97;;;15.92;46.54
79544;BME280;68994;47.176;7.534;2023-06-14T06:57:20;95566.50;;;15.97;45.69
79544;BME280;68994;47.176;7.534;2023-06-14T06:59:47;95571.78;;;16.02;45.52
79544;BME280;68994;47.176;7.534;2023-06-14T07:02:14;95571.53;;;16.12;45.74
79544;BME280;68994;47.176;7.534;2023-06-14T07:04:41;95572.88;;;16.24;45.64
79544;BME280;68994;47.176;7.534;2023-06-14T07:07:09;95570.94;;;16.38;46.18
79544;BME280;68994;47.176;7.534;2023-06-14T07:09:36;95571.84;;;16.47;44.79
79544;BME280;68994;47.176;7.534;2023-06-14T07:12:03;95564.03;;;16.68;43.05
79544;BME280;68994;47.176;7.534;2023-06-14T07:14:30;95568.50;;;16.73;42.31
79544;BME280;68994;47.176;7.534;2023-06-14T07:16:57;95570.59;;;16.76;44.18
79544;BME280;68994;47.176;7.534;2023-06-14T07:19:23;95577.97;;;16.84;43.66
79544;BME280;68994;47.176;7.534;2023-06-14T07:21:50;95573.53;;;17.11;43.13
79544;BME280;68994;47.176;7.534;2023-06-14T07:24:18;95565.91;;;17.13;42.68
79544;BME280;68994;47.176;7.534;2023-06-14T07:26:46;95568.47;;;17.18;43.13
79544;BME280;68994;47.176;7.534;2023-06-14T07:29:13;95575.19;;;17.30;41.79
79544;BME280;68994;47.176;7.534;2023-06-14T07:31:40;95574.34;;;17.60;40.81
79544;BME280;68994;47.176;7.534;2023-06-14T07:34:07;95566.28;;;17.78;39.32
79544;BME280;68994;47.176;7.534;2023-06-14T07:36:33;95573.63;;;17.86;41.42
79544;BME280;68994;47.176;7.534;2023-06-14T07:39:01;95570.91;;;17.86;39.40
79544;BME280;68994;47.176;7.534;2023-06-14T07:41:31;95576.97;;;17.83;40.57
79544;BME280;68994;47.176;7.534;2023-06-14T07:43:58;95577.44;;;17.85;41.84
79544;BME280;68994;47.176;7.534;2023-06-14T07:46:24;95574.47;;;18.13;38.83
79544;BME280;68994;47.176;7.534;2023-06-14T07:48:51;95575.94;;;18.10;37.34
79544;BME280;68994;47.176;7.534;2023-06-14T07:51:17;95570.84;;;18.09;39.37
79544;BME280;68994;47.176;7.534;2023-06-14T07:53:44;95571.97;;;18.25;38.43
79544;BME280;68994;47.176;7.534;2023-06-14T07:56:11;95581.69;;;18.35;38.80
79544;BME280;68994;47.176;7.534;2023-06-14T07:58:39;95586.44;;;18.47;37.69
79544;BME280;68994;47.176;7.534;2023-06-14T08:01:06;95578.16;;;18.69;36.70
79544;BME280;68994;47.176;7.534;2023-06-14T08:03:33;95579.44;;;18.72;38.03
79544;BME280;68994;47.176;7.534;2023-06-14T08:06:00;95577.84;;;18.71;38.23
79544;BME280;68994;47.176;7.534;2023-06-14T08:08:27;95582.13;;;18.81;37.44
79544;BME280;68994;47.176;7.534;2023-06-14T08:10:54;95581.03;;;18.90;36.43
79544;BME280;68994;47.176;7.534;2023-06-14T08:13:20;95581.63;;;18.96;36.99
79544;BME280;68994;47.176;7.534;2023-06-14T08:15:48;95583.69;;;18.99;36.27
79544;BME280;68994;47.176;7.534;2023-06-14T08:18:15;95586.38;;;19.08;36.20
79544;BME280;68994;47.176;7.534;2023-06-14T08:20:42;95577.75;;;19.23;34.63
79544;BME280;68994;47.176;7.534;2023-06-14T08:23:09;95577.09;;;19.26;35.63
79544;BME280;68994;47.176;7.534;2023-06-14T08:25:36;95580.88;;;19.43;35.08
79544;BME280;68994;47.176;7.534;2023-06-14T08:28:03;95581.00;;;19.46;34.02
79544;BME280;68994;47.176;7.534;2023-06-14T08:30:30;95572.56;;;19.48;33.41
79544;BME280;68994;47.176;7.534;2023-06-14T08:32:58;95577.75;;;19.62;33.33
79544;BME280;68994;47.176;7.534;2023-06-14T08:35:24;95581.06;;;19.76;33.00
79544;BME280;68994;47.176;7.534;2023-06-14T08:37:51;95581.97;;;19.80;34.02
79544;BME280;68994;47.176;7.534;2023-06-14T08:40:19;95585.53;;;20.02;33.01
79544;BME280;68994;47.176;7.534;2023-06-14T08:42:50;95582.16;;;20.05;33.39
79544;BME280;68994;47.176;7.534;2023-06-14T08:45:16;95585.00;;;20.09;34.09
79544;BME280;68994;47.176;7.534;2023-06-14T08:47:43;95587.09;;;20.33;29.84
79544;BME280;68994;47.176;7.534;2023-06-14T08:50:12;95579.09;;;20.36;32.68
79544;BME280;68994;47.176;7.534;2023-06-14T08:52:42;95580.00;;;20.41;32.54
79544;BME280;68994;47.176;7.534;2023-06-14T08:55:16;95585.16;;;20.54;34.19
79544;BME280;68994;47.176;7.534;2023-06-14T08:57:46;95582.53;;;20.67;31.48
79544;BME280;68994;47.176;7.534;2023-06-14T09:00:13;95590.84;;;20.83;29.92
79544;BME280;68994;47.176;7.534;2023-06-14T09:02:40;95583.50;;;20.83;30.23
79544;BME280;68994;47.176;7.534;2023-06-14T09:05:09;95586.03;;;21.01;29.98
79544;BME280;68994;47.176;7.534;2023-06-14T09:07:37;95577.34;;;20.95;32.06
79544;BME280;68994;47.176;7.534;2023-06-14T09:10:08;95576.47;;;21.16;32.76
79544;BME280;68994;47.176;7.534;2023-06-14T09:12:35;95577.84;;;21.22;30.14
79544;BME280;68994;47.176;7.534;2023-06-14T09:15:02;95579.88;;;21.25;31.06
79544;BME280;68994;47.176;7.534;2023-06-14T09:17:32;95579.81;;;21.46;30.67
79544;BME280;68994;47.176;7.534;2023-06-14T09:19:59;95573.41;;;21.51;29.73
79544;BME280;68994;47.176;7.534;2023-06-14T09:22:29;95577.16;;;21.71;29.25
79544;BME280;68994;47.176;7.534;2023-06-14T09:24:57;95579.16;;;21.86;27.42
79544;BME280;68994;47.176;7.534;2023-06-14T09:27:25;95579.94;;;22.11;28.21
79544;BME280;68994;47.176;7.534;2023-06-14T09:29:52;95574.41;;;22.32;28.92
79544;BME280;68994;47.176;7.534;2023-06-14T09:32:18;95576.50;;;22.79;28.06
79544;BME280;68994;47.176;7.534;2023-06-14T09:34:46;95573.97;;;23.31;28.22
79544;BME280;68994;47.176;7.534;2023-06-14T09:37:12;95580.47;;;24.77;27.52
79544;BME280;68994;47.176;7.534;2023-06-14T09:39:49;95575.84;;;27.11;22.68
79544;BME280;68994;47.176;7.534;2023-06-14T09:42:18;95592.50;;;28.95;20.63
79544;BME280;68994;47.176;7.534;2023-06-14T09:44:47;95591.13;;;30.24;17.72
79544;BME280;68994;47.176;7.534;2023-06-14T09:47:14;95590.69;;;31.46;17.77
79544;BME280;68994;47.176;7.534;2023-06-14T09:49:42;95587.00;;;32.20;15.65
79544;BME280;68994;47.176;7.534;2023-06-14T09:52:10;95593.59;;;33.02;15.61
79544;BME280;68994;47.176;7.534;2023-06-14T09:54:41;95591.78;;;33.50;16.54
79544;BME280;68994;47.176;7.534;2023-06-14T09:57:10;95584.16;;;34.08;15.29
79544;BME280;68994;47.176;7.534;2023-06-14T09:59:41;95570.38;;;34.72;14.40
79544;BME280;68994;47.176;7.534;2023-06-14T10:02:11;95567.09;;;34.77;12.81
79544;BME280;68994;47.176;7.534;2023-06-14T10:04:41;95575.44;;;35.34;14.47
79544;BME280;68994;47.176;7.534;2023-06-14T10:07:12;95569.69;;;36.10;16.23
79544;BME280;68994;47.176;7.534;2023-06-14T10:09:42;95574.75;;;36.45;12.69
79544;BME280;68994;47.176;7.534;2023-06-14T10:12:14;95581.25;;;36.54;13.98
79544;BME280;68994;47.176;7.534;2023-06-14T10:14:48;95583.97;;;36.42;12.59
79544;BME280;68994;47.176;7.534;2023-06-14T10:17:25;95582.25;;;36.77;12.75
79544;BME280;68994;47.176;7.534;2023-06-14T10:19:56;95572.53;;;37.11;11.73
79544;BME280;68994;47.176;7.534;2023-06-14T10:22:32;95573.09;;;37.19;12.76
79544;BME280;68994;47.176;7.534;2023-06-14T10:25:01;95566.53;;;37.12;12.20
79544;BME280;68994;47.176;7.534;2023-06-14T10:27:28;95568.00;;;37.30;12.09
79544;BME280;68994;47.176;7.534;2023-06-14T10:30:06;95572.16;;;36.96;12.19
79544;BME280;68994;47.176;7.534;2023-06-14T10:32:33;95568.88;;;37.27;13.44
79544;BME280;68994;47.176;7.534;2023-06-14T10:35:01;95573.09;;;37.19;12.35
79544;BME280;68994;47.176;7.534;2023-06-14T10:37:30;95569.47;;;37.47;9.68
79544;BME280;68994;47.176;7.534;2023-06-14T10:39:57;95567.78;;;37.50;13.65
79544;BME280;68994;47.176;7.534;2023-06-14T10:42:27;95567.91;;;37.59;10.15
79544;BME280;68994;47.176;7.534;2023-06-14T10:44:54;95563.91;;;37.86;11.37
79544;BME280;68994;47.176;7.534;2023-06-14T10:47:25;95569.91;;;38.32;13.12
79544;BME280;68994;47.176;7.534;2023-06-14T10:49:53;95565.06;;;38.46;11.28
79544;BME280;68994;47.176;7.534;2023-06-14T10:52:26;95560.94;;;38.50;11.32
79544;BME280;68994;47.176;7.534;2023-06-14T10:55:08;95554.97;;;38.83;11.85
79544;BME280;68994;47.176;7.534;2023-06-14T10:57:37;95546.53;;;38.96;11.29
79544;BME280;68994;47.176;7.534;2023-06-14T11:00:07;95543.88;;;39.14;11.58
79544;BME280;68994;47.176;7.534;2023-06-14T11:05:58;95541.22;;;39.11;12.34
79544;BME280;68994;47.176;7.534;2023-06-14T11:08:46;95545.78;;;38.95;10.51
79544;BME280;68994;47.176;7.534;2023-06-14T11:11:18;95540.03;;;39.21;10.93
79544;BME280;68994;47.176;7.534;2023-06-14T11:13:47;95549.13;;;38.46;10.73
79544;BME280;68994;47.176;7.534;2023-06-14T11:16:15;95542.81;;;38.68;10.08
79544;BME280;68994;47.176;7.534;2023-06-14T11:18:44;95543.25;;;38.88;11.79
79544;BME280;68994;47.176;7.534;2023-06-14T11:21:14;95536.84;;;38.78;10.20
79544;BME280;68994;47.176;7.534;2023-06-14T11:23:41;95550.09;;;38.96;12.16
79544;BME280;68994;47.176;7.534;2023-06-14T11:26:08;95548.50;;;38.86;11.77
79544;BME280;68994;47.176;7.534;2023-06-14T11:28:39;95543.84;;;38.61;10.18
79544;BME280;68994;47.176;7.534;2023-06-14T11:31:07;95542.50;;;38.66;11.83
79544;BME280;68994;47.176;7.534;2023-06-14T11:33:34;95540.94;;;38.87;12.95
79544;BME280;68994;47.176;7.534;2023-06-14T11:36:03;95544.38;;;39.22;10.42
79544;BME280;68994;47.176;7.534;2023-06-14T11:38:35;95534.09;;;39.10;11.16
79544;BME280;68994;47.176;7.534;2023-06-14T11:41:01;95545.25;;;39.10;10.11
79544;BME280;68994;47.176;7.534;2023-06-14T11:43:28;95537.16;;;38.58;10.33
79544;BME280;68994;47.176;7.534;2023-06-14T11:45:57;95540.75;;;38.59;10.08
79544;BME280;68994;47.176;7.534;2023-06-14T11:48:35;95536.28;;;38.62;9.45
79544;BME280;68994;47.176;7.534;2023-06-14T11:51:03;95535.38;;;38.30;12.94
79544;BME280;68994;47.176;7.534;2023-06-14T11:53:30;95538.09;;;38.42;11.05
79544;BME280;68994;47.176;7.534;2023-06-14T11:55:57;95541.97;;;38.80;13.21
79544;BME280;68994;47.176;7.534;2023-06-14T11:58:25;95528.88;;;39.21;11.75
79544;BME280;68994;47.176;7.534;2023-06-14T12:00:52;95528.69;;;39.15;11.17
79544;BME280;68994;47.176;7.534;2023-06-14T12:03:22;95524.19;;;39.18;11.95
79544;BME280;68994;47.176;7.534;2023-06-14T12:05:50;95528.31;;;39.36;13.51
79544;BME280;68994;47.176;7.534;2023-06-14T12:08:32;95535.88;;;39.57;10.87
79544;BME280;68994;47.176;7.534;2023-06-14T12:11:04;95529.06;;;39.27;9.74
79544;BME280;68994;47.176;7.534;2023-06-14T12:13:31;95530.47;;;38.78;12.02
79544;BME280;68994;47.176;7.534;2023-06-14T12:15:58;95522.78;;;38.60;13.20
79544;BME280;68994;47.176;7.534;2023-06-14T12:18:32;95522.66;;;38.64;11.44
79544;BME280;68994;47.176;7.534;2023-06-14T12:21:00;95530.13;;;38.67;12.58
79544;BME280;68994;47.176;7.534;2023-06-14T12:23:42;95526.91;;;38.77;12.42
79544;BME280;68994;47.176;7.534;2023-06-14T12:26:08;95518.91;;;38.45;11.27
79544;BME280;68994;47.176;7.534;2023-06-14T12:28:35;95514.53;;;38.56;10.49
79544;BME280;68994;47.176;7.534;2023-06-14T12:31:02;95517.78;;;38.77;13.04
79544;BME280;68994;47.176;7.534;2023-06-14T12:33:29;95511.06;;;38.52;9.65
79544;BME280;68994;47.176;7.534;2023-06-14T12:35:57;95512.16;;;38.33;13.41
79544;BME280;68994;47.176;7.534;2023-06-14T12:38:24;95510.63;;;38.32;13.41
79544;BME280;68994;47.176;7.534;2023-06-14T12:40:52;95512.44;;;38.26;12.11
79544;BME280;68994;47.176;7.534;2023-06-14T12:43:18;95525.50;;;37.68;10.90
79544;BME280;68994;47.176;7.534;2023-06-14T12:45:45;95513.47;;;37.45;12.36
79544;BME280;68994;47.176;7.534;2023-06-14T12:48:12;95498.78;;;37.32;10.75
79544;BME280;68994;47.176;7.534;2023-06-14T12:50:39;95508.78;;;37.42;12.22
79544;BME280;68994;47.176;7.534;2023-06-14T12:53:08;95511.16;;;37.31;12.17
79544;BME280;68994;47.176;7.534;2023-06-14T12:55:34;95509.03;;;37.48;13.73
79544;BME280;68994;47.176;7.534;2023-06-14T12:58:02;95512.00;;;37.02;12.86
79544;BME280;68994;47.176;7.534;2023-06-14T13:00:29;95507.09;;;37.06;13.99
79544;BME280;68994;47.176;7.534;2023-06-14T13:02:56;95506.78;;;37.04;13.73
79544;BME280;68994;47.176;7.534;2023-06-14T13:05:23;95507.34;;;36.99;12.78
79544;BME280;68994;47.176;7.534;2023-06-14T13:07:50;95502.22;;;36.68;13.41